createdAt,value
2022-12-31T00:00:04.881Z,99638.72
2022-12-31T00:02:31.332Z,99639.75
2022-12-31T00:04:57.750Z,99646.19
2022-12-31T00:07:24.165Z,99642.88
2022-12-31T00:09:50.526Z,99640.41
2022-12-31T00:12:16.882Z,99653.06
2022-12-31T00:14:43.220Z,99652.69
2022-12-31T00:17:09.737Z,99646.44
2022-12-31T00:19:36.146Z,99651.22
2022-12-31T00:22:02.655Z,99643.31
2022-12-31T00:24:31.039Z,99646.25
2022-12-31T00:26:57.544Z,99656.25
2022-12-31T00:29:24.052Z,99653.75
2022-12-31T00:31:50.400Z,99649.38
2022-12-31T00:34:16.724Z,99644.81
2022-12-31T00:36:43.434Z,99644.19
2022-12-31T00:39:10.646Z,99630.69
2022-12-31T00:41:37.619Z,99631.75
2022-12-31T00:44:04.451Z,99632.56
2022-12-31T00:46:31.843Z,99631.75
2022-12-31T00:48:58.335Z,99638.16
2022-12-31T00:51:27.428Z,99626.34
2022-12-31T00:53:55.384Z,99637.34
2022-12-31T00:56:24.051Z,99626.53
2022-12-31T00:58:51.228Z,99619.47
2022-12-31T01:01:29.927Z,99622.81
2022-12-31T01:04:00.582Z,99623.63
2022-12-31T01:06:26.954Z,99613.03
2022-12-31T01:08:55.151Z,99620.09
2022-12-31T01:11:22.929Z,99624.47
2022-12-31T01:13:49.719Z,99631.50
2022-12-31T01:16:17.779Z,99605.53
2022-12-31T01:18:44.523Z,99618.00
2022-12-31T01:21:12.999Z,99624.03
2022-12-31T01:23:39.700Z,99621.56
2022-12-31T01:26:09.745Z,99622.38
2022-12-31T01:28:36.381Z,99618.84
2022-12-31T01:31:07.818Z,99621.31
2022-12-31T01:33:34.544Z,99615.91
2022-12-31T01:36:11.286Z,99614.84
2022-12-31T01:38:38.076Z,99606.75
2022-12-31T01:41:05.005Z,99606.75
2022-12-31T01:43:46.213Z,99604.69
2022-12-31T01:46:31.356Z,99618.81
2022-12-31T01:49:02.452Z,99620.69
2022-12-31T01:51:32.735Z,99627.97
2022-12-31T01:54:00.245Z,99627.97
2022-12-31T01:56:26.741Z,99623.38
2022-12-31T01:58:56.553Z,99618.81
2022-12-31T02:01:30.276Z,99625.84
2022-12-31T02:03:57.547Z,99616.09
2022-12-31T02:06:40.284Z,99619.44
2022-12-31T02:09:07.714Z,99623.16
2022-12-31T02:11:37.700Z,99611.31
2022-12-31T02:14:13.297Z,99608.38
2022-12-31T02:17:14.981Z,99591.16
2022-12-31T02:20:08.804Z,99590.91
2022-12-31T02:23:01.556Z,99610.69
2022-12-31T02:26:01.466Z,99606.31
2022-12-31T02:28:30.774Z,99605.47
2022-12-31T02:31:16.979Z,99591.16
2022-12-31T02:33:58.158Z,99583.88
2022-12-31T02:36:33.877Z,99586.78
2022-12-31T02:39:02.881Z,99588.66
2022-12-31T02:41:48.158Z,99588.66
2022-12-31T02:44:41.318Z,99569.72
2022-12-31T02:47:07.661Z,99578.06
2022-12-31T02:49:54.084Z,99583.25
2022-12-31T02:52:31.563Z,99583.88
2022-12-31T02:55:17.655Z,99582.22
2022-12-31T02:57:56.660Z,99585.94
2022-12-31T03:00:42.370Z,99587.81
2022-12-31T03:03:10.435Z,99595.94
2022-12-31T03:05:41.461Z,99605.91
2022-12-31T03:08:08.609Z,99630.00
2022-12-31T03:10:35.712Z,99626.28
2022-12-31T03:13:02.779Z,99628.97
2022-12-31T03:15:34.177Z,99632.50
2022-12-31T03:18:08.370Z,99607.56
2022-12-31T03:20:55.198Z,99615.28
2022-12-31T03:23:27.816Z,99621.94
2022-12-31T03:25:55.743Z,99629.84
2022-12-31T03:28:24.947Z,99647.53
2022-12-31T03:30:54.956Z,99667.91
2022-12-31T03:33:22.613Z,99688.50
2022-12-31T03:35:50.021Z,99679.97
2022-12-31T03:38:17.825Z,99680.63
2022-12-31T03:40:47.022Z,99664.00
2022-12-31T03:43:13.449Z,99652.16
2022-12-31T03:45:40.430Z,99645.56
2022-12-31T03:48:09.195Z,99588.22
2022-12-31T03:50:36.038Z,99561.03
2022-12-31T03:53:02.473Z,99565.63
2022-12-31T03:55:28.909Z,99566.63
2022-12-31T03:57:55.276Z,99588.22
2022-12-31T04:00:22.207Z,99593.63
2022-12-31T04:02:50.031Z,99603.59
2022-12-31T04:05:18.114Z,99609.81
2022-12-31T04:07:45.098Z,99616.06
2022-12-31T04:10:14.264Z,99622.31
2022-12-31T04:12:40.788Z,99629.78
2022-12-31T04:15:11.235Z,99617.31
2022-12-31T04:17:37.823Z,99623.56
2022-12-31T04:20:04.527Z,99633.50
2022-12-31T04:22:30.856Z,99644.31
2022-12-31T04:24:57.267Z,99635.38
2022-12-31T04:27:23.602Z,99631.03
2022-12-31T04:29:50.118Z,99619.19
2022-12-31T04:32:16.528Z,99614.00
2022-12-31T04:34:42.921Z,99608.63
2022-12-31T04:37:09.322Z,99593.25
2022-12-31T04:39:35.675Z,99618.34
2022-12-31T04:42:02.100Z,99627.28
2022-12-31T04:44:28.546Z,99624.56
2022-12-31T04:46:54.974Z,99629.16
2022-12-31T04:49:21.399Z,99625.41
2022-12-31T04:51:47.740Z,99630.81
2022-12-31T04:54:14.145Z,99628.09
2022-12-31T04:56:40.549Z,99644.31
2022-12-31T04:59:07.283Z,99629.78
2022-12-31T05:01:33.913Z,99631.44
2022-12-31T05:04:00.457Z,99629.78
2022-12-31T05:06:27.059Z,99633.09
2022-12-31T05:08:53.469Z,99631.22
2022-12-31T05:11:19.848Z,99639.09
2022-12-31T05:13:46.339Z,99631.84
2022-12-31T05:16:12.795Z,99631.84
2022-12-31T05:18:39.157Z,99634.75
2022-12-31T05:21:06.255Z,99640.34
2022-12-31T05:23:32.711Z,99636.81
2022-12-31T05:25:59.650Z,99627.09
2022-12-31T05:28:26.589Z,99627.09
2022-12-31T05:30:53.241Z,99627.09
2022-12-31T05:33:20.588Z,99619.19
2022-12-31T05:35:47.110Z,99630.81
2022-12-31T05:38:13.529Z,99638.06
2022-12-31T05:40:39.903Z,99644.09
2022-12-31T05:43:07.123Z,99642.22
2022-12-31T05:45:33.547Z,99638.50
2022-12-31T05:48:00.394Z,99648.25
2022-12-31T05:50:26.830Z,99643.47
2022-12-31T05:52:53.256Z,99638.69
2022-12-31T05:55:19.695Z,99636.59
2022-12-31T05:57:46.250Z,99634.75
2022-12-31T06:00:13.646Z,99638.88
2022-12-31T06:02:40.171Z,99643.25
2022-12-31T06:05:07.283Z,99636.78
2022-12-31T06:07:33.707Z,99643.88
2022-12-31T06:10:00.170Z,99649.03
2022-12-31T06:12:26.568Z,99649.88
2022-12-31T06:14:52.964Z,99655.91
2022-12-31T06:17:20.498Z,99662.97
2022-12-31T06:19:47.319Z,99670.84
2022-12-31T06:22:14.143Z,99672.53
2022-12-31T06:24:40.610Z,99663.38
2022-12-31T06:27:06.964Z,99675.81
2022-12-31T06:29:33.342Z,99682.91
2022-12-31T06:31:59.702Z,99681.03
2022-12-31T06:34:26.024Z,99689.13
2022-12-31T06:36:52.533Z,99686.44
2022-12-31T06:39:18.976Z,99677.28
2022-12-31T06:41:45.340Z,99687.06
2022-12-31T06:44:11.942Z,99680.81
2022-12-31T06:46:38.334Z,99692.47
2022-12-31T06:49:04.711Z,99701.56
2022-12-31T06:51:31.236Z,99700.97
2022-12-31T06:53:57.646Z,99708.22
2022-12-31T06:56:33.839Z,99709.91
2022-12-31T06:59:02.146Z,99709.09
2022-12-31T07:01:50.420Z,99712.59
2022-12-31T07:04:35.560Z,99716.97
2022-12-31T07:07:29.309Z,99713.63
2022-12-31T07:10:29.164Z,99691.19
2022-12-31T07:13:14.363Z,99707.63
2022-12-31T07:16:06.042Z,99705.13
2022-12-31T07:18:44.551Z,99704.50
2022-12-31T07:21:18.353Z,99704.50
2022-12-31T07:23:45.173Z,99705.75
2022-12-31T07:26:34.269Z,99713.66
2022-12-31T07:29:12.864Z,99711.97
2022-12-31T07:31:57.736Z,99715.31
2022-12-31T07:34:41.988Z,99717.38
2022-12-31T07:37:19.532Z,99714.69
2022-12-31T07:40:09.247Z,99711.97
2022-12-31T07:43:01.284Z,99710.13
2022-12-31T07:45:46.333Z,99717.38
2022-12-31T07:48:26.554Z,99717.19
2022-12-31T07:50:54.748Z,99714.47
2022-12-31T07:53:22.448Z,99717.00
2022-12-31T07:55:57.280Z,99715.94
2022-12-31T07:58:45.039Z,99727.13
2022-12-31T08:01:15.720Z,99728.00
2022-12-31T08:03:54.331Z,99724.88
2022-12-31T08:06:51.240Z,99724.63
2022-12-31T08:09:17.532Z,99718.63
2022-12-31T08:11:58.946Z,99723.81
2022-12-31T08:14:26.390Z,99718.63
2022-12-31T08:16:53.554Z,99728.38
2022-12-31T08:19:30.843Z,99727.34
2022-12-31T08:22:44.587Z,99723.16
2022-12-31T08:25:25.548Z,99721.91
2022-12-31T08:28:16.360Z,99715.25
2022-12-31T08:31:01.192Z,99719.41
2022-12-31T08:33:47.424Z,99720.03
2022-12-31T08:36:23.953Z,99717.53
2022-12-31T08:38:54.417Z,99696.31
2022-12-31T08:41:42.935Z,99708.97
2022-12-31T08:44:09.593Z,99708.31
2022-12-31T08:46:45.792Z,99706.44
2022-12-31T08:49:14.632Z,99704.75
2022-12-31T08:51:41.544Z,99698.25
2022-12-31T08:54:10.981Z,99697.19
2022-12-31T08:57:25.583Z,99711.09
2022-12-31T09:00:01.014Z,99709.59
2022-12-31T09:03:00.383Z,99702.47
2022-12-31T09:06:00.353Z,99706.97
2022-12-31T09:08:36.828Z,99700.84
2022-12-31T09:11:22.952Z,99697.41
2022-12-31T09:14:03.752Z,99693.41
2022-12-31T09:16:39.336Z,99708.94
2022-12-31T09:19:08.573Z,99707.00
2022-12-31T09:21:35.108Z,99716.47
2022-12-31T09:24:07.445Z,99713.53
2022-12-31T09:26:47.783Z,99713.22
2022-12-31T09:29:27.376Z,99705.25
2022-12-31T09:32:23.666Z,99717.31
2022-12-31T09:35:04.199Z,99708.75
2022-12-31T09:37:49.836Z,99706.41
2022-12-31T09:40:25.151Z,99706.19
2022-12-31T09:43:22.421Z,99715.75
2022-12-31T09:46:01.000Z,99718.84
2022-12-31T09:48:52.173Z,99731.09
2022-12-31T09:51:32.631Z,99736.94
2022-12-31T09:54:30.051Z,99766.06
2022-12-31T09:57:30.728Z,99811.47
2022-12-31T10:00:09.797Z,99845.44
2022-12-31T10:03:16.763Z,99842.53
2022-12-31T10:06:05.213Z,99856.53
2022-12-31T10:09:07.979Z,99856.78
2022-12-31T10:12:04.678Z,99896.50
2022-12-31T10:14:55.563Z,99899.94
2022-12-31T10:18:03.906Z,99911.88
2022-12-31T10:20:45.244Z,99909.84
2022-12-31T10:23:26.326Z,99899.72
2022-12-31T10:26:07.910Z,99917.84
2022-12-31T10:28:51.237Z,99925.19
2022-12-31T10:31:40.895Z,99926.88
2022-12-31T10:34:25.719Z,99916.25
2022-12-31T10:37:03.806Z,99914.19
2022-12-31T10:39:54.011Z,99915.03
2022-12-31T10:42:31.101Z,99903.38
2022-12-31T10:45:17.636Z,99897.72
2022-12-31T10:48:13.790Z,99900.00
2022-12-31T10:51:01.211Z,99901.44
2022-12-31T10:53:48.056Z,99902.91
2022-12-31T10:56:48.553Z,99893.94
2022-12-31T10:59:33.984Z,99879.94
2022-12-31T11:02:18.887Z,99879.50
2022-12-31T11:05:23.167Z,99880.31
2022-12-31T11:08:38.007Z,99899.44
2022-12-31T11:11:22.879Z,99919.63
2022-12-31T11:14:04.480Z,99901.09
2022-12-31T11:17:12.414Z,99903.97
2022-12-31T11:19:44.428Z,99898.97
2022-12-31T11:22:35.588Z,99907.47
2022-12-31T11:25:28.937Z,99899.75
2022-12-31T11:28:07.628Z,99900.97
2022-12-31T11:30:55.820Z,99898.44
2022-12-31T11:33:50.548Z,99893.81
2022-12-31T11:36:22.782Z,99883.34
2022-12-31T11:39:02.563Z,99878.28
2022-12-31T11:41:51.933Z,99887.66
2022-12-31T11:44:40.417Z,99875.53
2022-12-31T11:48:20.225Z,99876.38
2022-12-31T11:50:43.129Z,99864.50
2022-12-31T11:53:23.923Z,99871.56
2022-12-31T11:56:06.181Z,99867.78
2022-12-31T11:58:32.552Z,99861.34
2022-12-31T12:01:33.767Z,99867.38
2022-12-31T12:04:01.086Z,99861.72
2022-12-31T12:06:30.087Z,99859.38
2022-12-31T12:09:01.578Z,99860.22
2022-12-31T12:11:32.386Z,99863.91
2022-12-31T12:13:58.723Z,99876.22
2022-12-31T12:16:26.907Z,99871.97
2022-12-31T12:19:16.452Z,99869.44
2022-12-31T12:21:47.763Z,99876.69
2022-12-31T12:24:30.693Z,99876.84
2022-12-31T12:26:57.635Z,99881.00
2022-12-31T12:29:31.840Z,99883.84
2022-12-31T12:32:19.660Z,99881.53
2022-12-31T12:34:49.602Z,99876.72
2022-12-31T12:37:28.607Z,99880.03
2022-12-31T12:40:01.707Z,99884.44
2022-12-31T12:42:29.324Z,99886.91
2022-12-31T12:45:05.169Z,99872.91
2022-12-31T12:47:32.192Z,99881.88
2022-12-31T12:49:59.116Z,99873.50
2022-12-31T12:53:02.669Z,99864.06
2022-12-31T12:55:54.086Z,99868.22
2022-12-31T12:58:51.488Z,99864.22
2022-12-31T13:01:41.865Z,99868.16
2022-12-31T13:07:19.540Z,99877.06
2022-12-31T13:09:59.597Z,99879.06
2022-12-31T13:13:05.284Z,99878.59
2022-12-31T13:15:54.014Z,99877.94
2022-12-31T13:18:35.109Z,99891.06
2022-12-31T13:21:39.009Z,99888.72
2022-12-31T13:24:14.801Z,99873.88
2022-12-31T13:27:04.514Z,99890.53
2022-12-31T13:29:34.540Z,99885.69
2022-12-31T13:32:04.701Z,99888.16
2022-12-31T13:34:35.041Z,99885.03
2022-12-31T13:37:24.516Z,99893.75
2022-12-31T13:40:01.403Z,99893.75
2022-12-31T13:42:51.723Z,99886.66
2022-12-31T13:45:25.177Z,99881.44
2022-12-31T13:47:57.098Z,99895.50
2022-12-31T13:50:55.291Z,99886.16
2022-12-31T13:53:26.961Z,99905.59
2022-12-31T13:55:58.817Z,99901.69
2022-12-31T13:58:36.954Z,99898.63
2022-12-31T14:01:38.514Z,99902.81
2022-12-31T14:04:15.853Z,99903.50
2022-12-31T14:07:16.655Z,99899.59
2022-12-31T14:09:43.242Z,99898.63
2022-12-31T14:12:39.936Z,99921.59
2022-12-31T14:15:35.137Z,99915.78
2022-12-31T14:18:27.641Z,99919.78
2022-12-31T14:21:03.578Z,99931.91
2022-12-31T14:23:40.290Z,99924.38
2022-12-31T14:26:31.219Z,99939.84
2022-12-31T14:29:09.768Z,99934.88
2022-12-31T14:31:57.706Z,99938.63
2022-12-31T14:35:01.545Z,99941.31
2022-12-31T14:37:45.559Z,99930.47
2022-12-31T14:40:14.802Z,99932.59
2022-12-31T14:43:11.102Z,99938.63
2022-12-31T14:46:03.941Z,99944.03
2022-12-31T14:48:39.292Z,99943.22
2022-12-31T14:51:06.762Z,99953.25
2022-12-31T14:53:33.436Z,99941.78
2022-12-31T14:56:06.118Z,99947.00
2022-12-31T14:58:44.280Z,99936.34
2022-12-31T15:01:18.737Z,99941.78
2022-12-31T15:03:46.329Z,99946.38
2022-12-31T15:06:27.903Z,99968.09
2022-12-31T15:09:15.048Z,99943.66
2022-12-31T15:12:03.499Z,99959.94
2022-12-31T15:15:14.527Z,99951.59
2022-12-31T15:17:53.586Z,99940.75
2022-12-31T15:20:34.923Z,99937.19
2022-12-31T15:23:01.876Z,99948.28
2022-12-31T15:25:40.437Z,99941.16
2022-12-31T15:28:30.418Z,99963.72
2022-12-31T15:31:03.539Z,99968.53
2022-12-31T15:33:36.456Z,99978.56
2022-12-31T15:36:21.251Z,99971.47
2022-12-31T15:38:48.754Z,99968.09
2022-12-31T15:41:25.799Z,99980.63
2022-12-31T15:44:07.657Z,99984.00
2022-12-31T15:46:40.919Z,99982.94
2022-12-31T15:49:18.217Z,99975.41
2022-12-31T15:51:56.013Z,99984.97
2022-12-31T15:54:37.956Z,99984.16
2022-12-31T15:57:09.446Z,99985.81
2022-12-31T15:59:38.054Z,99985.81
2022-12-31T16:02:04.540Z,99993.94
2022-12-31T16:04:33.366Z,99996.66
2022-12-31T16:07:03.735Z,99986.41
2022-12-31T16:09:34.313Z,99999.16
2022-12-31T16:12:02.340Z,99995.38
2022-12-31T16:14:36.225Z,99988.69
2022-12-31T16:17:03.170Z,99993.28
2022-12-31T16:19:42.875Z,99989.31
2022-12-31T16:22:16.862Z,99993.66
2022-12-31T16:25:19.472Z,99997.44
2022-12-31T16:27:31.272Z,99995.56
2022-12-31T16:30:01.026Z,99991.16
2022-12-31T16:32:34.500Z,99995.75
2022-12-31T16:35:00.841Z,100007.06
2022-12-31T16:37:27.687Z,100005.41
2022-12-31T16:40:09.485Z,100003.75
2022-12-31T16:42:44.118Z,100002.28
2022-12-31T16:45:35.978Z,99984.56
2022-12-31T16:48:22.666Z,99992.13
2022-12-31T16:50:52.452Z,99987.09
2022-12-31T16:53:22.381Z,99995.69
2022-12-31T16:55:55.395Z,100004.88
2022-12-31T16:58:32.854Z,100005.91
2022-12-31T17:01:20.960Z,99995.06
2022-12-31T17:03:53.473Z,99993.22
2022-12-31T17:06:21.342Z,100000.94
2022-12-31T17:08:55.747Z,99984.66
2022-12-31T17:11:39.053Z,99980.09
2022-12-31T17:14:05.308Z,99975.09
2022-12-31T17:16:33.371Z,99968.00
2022-12-31T17:18:59.809Z,99974.72
2022-12-31T17:21:28.778Z,99955.72
2022-12-31T17:24:01.652Z,99951.38
2022-12-31T17:26:30.924Z,99951.56
2022-12-31T17:28:59.816Z,99950.13
2022-12-31T17:31:33.577Z,99939.28
2022-12-31T17:34:22.164Z,99935.75
2022-12-31T17:37:18.113Z,99949.50
2022-12-31T17:39:46.970Z,99935.13
2022-12-31T17:42:21.950Z,99946.19
2022-12-31T17:44:48.420Z,99937.22
2022-12-31T17:47:14.995Z,99932.88
2022-12-31T17:49:44.973Z,99935.59
2022-12-31T17:52:15.858Z,99932.88
2022-12-31T17:54:42.409Z,99932.88
2022-12-31T17:57:24.585Z,99926.38
2022-12-31T17:59:51.178Z,99915.53
2022-12-31T18:02:17.643Z,99927.44
2022-12-31T18:04:44.052Z,99937.22
2022-12-31T18:07:10.389Z,99930.97
2022-12-31T18:09:36.855Z,99938.28
2022-12-31T18:12:05.736Z,99940.19
2022-12-31T18:14:32.111Z,99922.22
2022-12-31T18:16:58.491Z,99936.84
2022-12-31T18:19:54.132Z,99929.78
2022-12-31T18:22:17.261Z,99925.56
2022-12-31T18:24:44.117Z,99930.97
2022-12-31T18:27:18.341Z,99941.81
2022-12-31T18:29:45.219Z,99921.41
2022-12-31T18:32:23.907Z,99908.66
2022-12-31T18:34:51.118Z,99931.44
2022-12-31T18:37:22.114Z,99937.69
2022-12-31T18:39:49.095Z,99922.22
2022-12-31T18:42:17.848Z,99943.72
2022-12-31T18:44:45.259Z,99936.41
2022-12-31T18:47:16.679Z,99948.91
2022-12-31T18:49:44.805Z,99940.34
2022-12-31T18:52:20.395Z,99968.06
2022-12-31T18:54:47.005Z,99976.19
2022-12-31T18:57:15.155Z,99962.41
2022-12-31T18:59:42.266Z,99952.41
2022-12-31T19:02:18.504Z,99947.59
2022-12-31T19:04:45.602Z,99952.19
2022-12-31T19:07:12.081Z,99953.84
2022-12-31T19:09:47.132Z,99947.59
2022-12-31T19:12:15.277Z,99951.94
2022-12-31T19:14:41.823Z,99953.63
2022-12-31T19:19:34.533Z,99952.97
2022-12-31T19:22:01.085Z,99954.38
2022-12-31T19:24:27.561Z,99962.91
2022-12-31T19:26:54.420Z,99949.75
2022-12-31T19:29:25.874Z,99963.72
2022-12-31T19:31:52.912Z,99944.50
2022-12-31T19:34:19.416Z,99936.97
2022-12-31T19:36:46.225Z,99953.03
2022-12-31T19:39:18.939Z,99949.88
2022-12-31T19:41:45.693Z,99962.38
2022-12-31T19:44:19.456Z,99973.84
2022-12-31T19:46:46.845Z,99957.56
2022-12-31T19:49:14.289Z,99960.03
2022-12-31T19:51:41.522Z,99958.16
2022-12-31T19:54:08.064Z,99965.25
2022-12-31T19:56:34.650Z,99978.81
2022-12-31T19:59:08.666Z,99970.47
2022-12-31T20:01:35.137Z,99981.31
2022-12-31T20:04:01.571Z,99977.75
2022-12-31T20:06:27.981Z,99979.63
2022-12-31T20:08:54.428Z,99976.94
2022-12-31T20:11:23.228Z,99987.78
2022-12-31T20:13:52.095Z,99997.00
2022-12-31T20:16:20.782Z,99990.94
2022-12-31T20:18:48.079Z,99995.75
2022-12-31T20:21:19.552Z,100012.03
2022-12-31T20:23:47.276Z,99995.16
2022-12-31T20:26:13.833Z,100011.66
2022-12-31T20:28:40.445Z,100013.56
2022-12-31T20:31:08.958Z,100002.09
2022-12-31T20:33:35.453Z,100018.97
2022-12-31T20:36:07.555Z,100003.75
2022-12-31T20:38:34.425Z,100010.03
2022-12-31T20:41:09.742Z,100002.47
2022-12-31T20:43:37.021Z,100018.53
2022-12-31T20:46:22.245Z,100013.72
2022-12-31T20:48:51.144Z,100015.38
2022-12-31T20:51:19.182Z,100021.63
2022-12-31T20:54:00.509Z,100026.03
2022-12-31T20:56:29.465Z,100030.59
2022-12-31T20:58:56.286Z,100026.84
2022-12-31T21:01:23.552Z,100020.34
2022-12-31T21:04:06.854Z,100021.16
2022-12-31T21:06:35.203Z,100020.97
2022-12-31T21:09:04.087Z,100021.59
2022-12-31T21:11:49.020Z,100027.00
2022-12-31T21:14:15.393Z,100032.44
2022-12-31T21:16:42.625Z,100026.75
2022-12-31T21:19:09.809Z,100026.75
2022-12-31T21:21:36.517Z,100019.47
2022-12-31T21:24:03.573Z,100036.19
2022-12-31T21:26:30.791Z,100035.59
2022-12-31T21:28:57.289Z,100042.88
2022-12-31T21:31:23.784Z,100037.69
2022-12-31T21:33:53.896Z,100046.88
2022-12-31T21:36:20.256Z,100038.16
2022-12-31T21:38:46.674Z,100033.53
2022-12-31T21:41:34.984Z,100046.88
2022-12-31T21:44:02.053Z,100043.13
2022-12-31T21:46:28.634Z,100049.16
2022-12-31T21:48:59.016Z,100048.94
2022-12-31T21:51:26.318Z,100046.22
2022-12-31T21:53:52.811Z,100061.22
2022-12-31T21:56:21.471Z,100068.91
2022-12-31T21:59:16.933Z,100054.91
2022-12-31T22:02:02.221Z,100053.88
2022-12-31T22:05:01.036Z,100043.63
2022-12-31T22:07:15.359Z,100047.16
2022-12-31T22:09:41.897Z,100046.91
2022-12-31T22:12:08.270Z,100053.41
2022-12-31T22:14:34.742Z,100050.69
2022-12-31T22:17:01.167Z,100065.34
2022-12-31T22:19:27.572Z,100062.84
2022-12-31T22:21:53.997Z,100068.72
2022-12-31T22:24:20.453Z,100061.00
2022-12-31T22:26:47.065Z,100075.03
2022-12-31T22:29:13.712Z,100065.47
2022-12-31T22:31:40.158Z,100071.91
2022-12-31T22:34:06.793Z,100081.13
2022-12-31T22:36:33.230Z,100069.66
2022-12-31T22:38:59.671Z,100073.44
2022-12-31T22:41:27.234Z,100085.94
2022-12-31T22:44:03.134Z,100083.00
2022-12-31T22:46:30.687Z,100087.38
2022-12-31T22:48:59.144Z,100086.31
2022-12-31T22:51:54.972Z,100098.03
2022-12-31T22:54:12.769Z,100093.78
2022-12-31T22:56:39.308Z,100094.41
2022-12-31T22:59:05.690Z,100080.41
2022-12-31T23:01:32.260Z,100094.78
2022-12-31T23:03:58.896Z,100097.91
2022-12-31T23:06:25.495Z,100099.56
2022-12-31T23:09:11.260Z,100102.91
2022-12-31T23:11:39.687Z,100105.16
2022-12-31T23:14:26.363Z,100096.56
2022-12-31T23:17:29.449Z,100101.34
2022-12-31T23:20:16.128Z,100119.06
2022-12-31T23:23:01.010Z,100105.03
2022-12-31T23:25:27.616Z,100105.66
2022-12-31T23:27:54.140Z,100102.69
2022-12-31T23:30:20.523Z,100110.44
2022-12-31T23:32:46.965Z,100094.72
2022-12-31T23:35:13.983Z,100099.94
2022-12-31T23:37:40.439Z,100107.84
2022-12-31T23:40:07.602Z,100097.84
2022-12-31T23:42:34.012Z,100095.94
2022-12-31T23:45:00.425Z,100106.81
2022-12-31T23:47:26.897Z,100104.09
2022-12-31T23:49:53.237Z,100103.28
2022-12-31T23:52:20.364Z,100115.56
2022-12-31T23:54:46.803Z,100101.13
2022-12-31T23:57:13.340Z,100105.53
2022-12-31T23:59:39.663Z,100107.19
